createdAt,value
2019-04-27T00:00:46.038Z,24.00
2019-04-27T00:03:15.250Z,23.90
2019-04-27T00:05:47.387Z,24.00
2019-04-27T00:08:38.793Z,24.00
2019-04-27T00:11:08.889Z,23.90
2019-04-27T00:13:40.529Z,24.00
2019-04-27T00:16:11.091Z,23.90
2019-04-27T00:18:45.461Z,23.90
2019-04-27T00:21:17.310Z,23.90
2019-04-27T00:23:46.510Z,24.00
2019-04-27T00:26:14.110Z,24.00
2019-04-27T00:28:43.305Z,24.00
2019-04-27T00:31:11.044Z,24.10
2019-04-27T00:33:38.648Z,23.90
2019-04-27T00:36:07.900Z,24.00
2019-04-27T00:38:40.106Z,24.10
2019-04-27T00:41:09.300Z,23.90
2019-04-27T00:43:36.905Z,24.00
2019-04-27T00:46:04.467Z,24.00
2019-04-27T00:48:33.348Z,23.90
2019-04-27T00:51:04.122Z,23.90
2019-04-27T00:53:30.406Z,24.00
2019-04-27T00:55:59.648Z,23.90
2019-04-27T00:58:28.860Z,23.90
2019-04-27T01:01:00.845Z,24.00
2019-04-27T01:03:36.115Z,24.40
2019-04-27T01:06:03.717Z,23.90
2019-04-27T01:08:50.718Z,23.80
2019-04-27T01:11:18.326Z,23.90
2019-04-27T01:13:45.868Z,23.70
2019-04-27T01:16:17.345Z,23.90
2019-04-27T01:18:42.775Z,24.50
2019-04-27T01:21:10.363Z,24.40
2019-04-27T01:23:38.509Z,24.00
2019-04-27T01:26:10.841Z,23.80
2019-04-27T01:28:45.774Z,23.90
2019-04-27T01:31:19.215Z,24.00
2019-04-27T01:33:46.808Z,24.60
2019-04-27T01:36:14.380Z,23.90
2019-04-27T01:38:41.969Z,23.80
2019-04-27T01:41:09.537Z,23.80
2019-04-27T01:43:38.708Z,23.80
2019-04-27T01:46:06.530Z,23.90
2019-04-27T01:48:34.148Z,23.90
2019-04-27T01:51:01.719Z,23.80
2019-04-27T01:53:30.425Z,23.80
2019-04-27T01:55:59.219Z,23.80
2019-04-27T01:58:27.009Z,23.80
2019-04-27T02:01:05.326Z,23.80
2019-04-27T02:03:38.676Z,23.80
2019-04-27T02:06:06.410Z,23.90
2019-04-27T02:08:34.009Z,23.80
2019-04-27T02:11:01.620Z,23.90
2019-04-27T02:13:29.178Z,23.70
2019-04-27T02:15:58.689Z,23.80
2019-04-27T02:18:35.648Z,23.70
2019-04-27T02:20:55.392Z,23.90
2019-04-27T02:23:22.948Z,23.90
2019-04-27T02:25:50.555Z,23.80
2019-04-27T02:28:22.823Z,23.70
2019-04-27T02:31:09.783Z,23.70
2019-04-27T02:33:40.319Z,23.70
2019-04-27T02:36:14.014Z,23.70
2019-04-27T02:38:40.270Z,23.80
2019-04-27T02:41:06.971Z,23.60
2019-04-27T02:43:39.966Z,23.70
2019-04-27T02:46:09.577Z,23.80
2019-04-27T02:48:52.945Z,23.70
2019-04-27T02:51:10.071Z,23.70
2019-04-27T02:53:54.813Z,23.70
2019-04-27T02:56:22.996Z,23.70
2019-04-27T02:58:50.561Z,23.80
2019-04-27T03:01:20.089Z,23.80
2019-04-27T03:03:49.941Z,23.70
2019-04-27T03:06:17.003Z,23.60
2019-04-27T03:08:44.577Z,23.80
2019-04-27T03:11:12.239Z,23.70
2019-04-27T03:13:53.295Z,23.80
2019-04-27T03:16:29.713Z,23.70
2019-04-27T03:19:18.826Z,23.80
2019-04-27T03:22:01.539Z,23.70
2019-04-27T03:24:49.608Z,23.70
2019-04-27T03:27:20.104Z,23.60
2019-04-27T03:29:49.907Z,23.50
2019-04-27T03:32:16.816Z,23.70
2019-04-27T03:34:44.395Z,23.70
2019-04-27T03:37:11.998Z,23.70
2019-04-27T03:39:39.898Z,23.70
2019-04-27T03:42:10.462Z,23.60
2019-04-27T03:44:39.868Z,23.60
2019-04-27T03:47:12.284Z,23.70
2019-04-27T03:49:38.824Z,23.60
2019-04-27T03:52:09.635Z,23.70
2019-04-27T03:54:40.056Z,23.60
2019-04-27T03:57:10.058Z,23.60
2019-04-27T03:59:55.893Z,23.60
2019-04-27T04:02:23.478Z,23.60
2019-04-27T04:04:51.120Z,23.70
2019-04-27T04:07:19.708Z,23.70
2019-04-27T04:09:50.095Z,23.60
2019-04-27T04:12:19.724Z,23.60
2019-04-27T04:14:49.308Z,23.50
2019-04-27T04:17:20.409Z,23.70
2019-04-27T04:19:57.154Z,23.60
2019-04-27T04:22:17.121Z,23.60
2019-04-27T04:24:44.781Z,23.60
2019-04-27T04:27:12.364Z,23.60
2019-04-27T04:29:39.937Z,23.70
2019-04-27T04:32:07.519Z,23.60
2019-04-27T04:34:35.073Z,23.60
2019-04-27T04:37:02.675Z,23.60
2019-04-27T04:39:30.252Z,23.70
2019-04-27T04:42:02.154Z,23.70
2019-04-27T04:44:39.751Z,23.60
2019-04-27T04:47:11.405Z,23.60
2019-04-27T04:49:39.734Z,23.60
2019-04-27T04:52:09.671Z,23.70
2019-04-27T04:54:36.842Z,23.60
2019-04-27T04:57:04.435Z,23.60
2019-04-27T04:59:32.005Z,23.60
2019-04-27T05:02:01.828Z,23.60
2019-04-27T05:04:29.232Z,23.60
2019-04-27T05:06:56.894Z,23.60
2019-04-27T05:09:24.461Z,23.60
2019-04-27T05:11:52.096Z,23.80
2019-04-27T05:14:20.030Z,23.70
2019-04-27T05:16:48.902Z,23.60
2019-04-27T05:19:18.738Z,23.60
2019-04-27T05:21:46.006Z,23.60
2019-04-27T05:24:13.604Z,23.50
2019-04-27T05:26:41.144Z,23.60
2019-04-27T05:29:09.229Z,23.70
2019-04-27T05:31:38.663Z,23.80
2019-04-27T05:34:06.829Z,23.90
2019-04-27T05:36:34.566Z,23.60
2019-04-27T05:39:02.188Z,23.80
2019-04-27T05:41:31.193Z,23.60
2019-04-27T05:44:03.186Z,23.60
2019-04-27T05:46:40.484Z,23.60
2019-04-27T05:49:09.708Z,23.60
2019-04-27T05:51:40.009Z,23.60
2019-04-27T05:54:06.667Z,23.60
2019-04-27T05:56:34.278Z,23.70
2019-04-27T05:59:01.862Z,23.60
2019-04-27T06:01:29.736Z,23.60
2019-04-27T06:03:58.825Z,23.70
2019-04-27T06:06:26.554Z,23.60
2019-04-27T06:08:54.151Z,23.50
2019-04-27T06:11:21.720Z,23.60
2019-04-27T06:13:49.378Z,23.60
2019-04-27T06:16:16.966Z,23.70
2019-04-27T06:18:44.557Z,23.60
2019-04-27T06:21:12.141Z,23.50
2019-04-27T06:23:39.743Z,23.50
2019-04-27T06:26:11.431Z,23.60
2019-04-27T06:28:36.662Z,23.40
2019-04-27T06:31:04.218Z,23.60
2019-04-27T06:33:34.299Z,23.70
2019-04-27T06:36:01.819Z,23.60
2019-04-27T06:38:29.579Z,23.50
2019-04-27T06:40:57.160Z,23.50
2019-04-27T06:43:24.738Z,23.50
2019-04-27T06:45:52.326Z,23.50
2019-04-27T06:48:19.914Z,23.50
2019-04-27T06:50:49.008Z,23.50
2019-04-27T06:53:16.948Z,23.40
2019-04-27T06:55:44.531Z,23.40
2019-04-27T06:58:12.184Z,23.50
2019-04-27T07:00:39.724Z,23.50
2019-04-27T07:03:08.977Z,24.00
2019-04-27T07:05:36.620Z,23.50
2019-04-27T07:08:04.196Z,23.50
2019-04-27T07:10:31.773Z,23.50
2019-04-27T07:12:59.774Z,23.50
2019-04-27T07:15:28.692Z,23.50
2019-04-27T07:17:56.382Z,23.40
2019-04-27T07:20:23.982Z,23.40
2019-04-27T07:22:51.533Z,23.40
2019-04-27T07:25:19.091Z,23.40
2019-04-27T07:27:46.692Z,23.50
2019-04-27T07:30:14.253Z,23.30
2019-04-27T07:32:41.925Z,23.40
2019-04-27T07:35:09.898Z,23.40
2019-04-27T07:37:39.189Z,23.40
2019-04-27T07:40:06.947Z,23.40
2019-04-27T07:42:34.556Z,23.50
2019-04-27T07:45:11.174Z,23.40
2019-04-27T07:47:40.726Z,23.20
2019-04-27T07:50:09.655Z,23.30
2019-04-27T07:52:38.693Z,23.30
2019-04-27T07:55:08.609Z,23.30
2019-04-27T07:57:36.122Z,23.40
2019-04-27T08:00:05.089Z,23.30
2019-04-27T08:02:32.696Z,23.30
2019-04-27T08:05:00.249Z,23.30
2019-04-27T08:07:29.124Z,23.30
2019-04-27T08:09:56.928Z,23.40
2019-04-27T08:12:24.520Z,23.50
2019-04-27T08:14:52.210Z,23.40
2019-04-27T08:17:19.781Z,23.40
2019-04-27T08:19:49.371Z,23.40
2019-04-27T08:22:16.673Z,23.30
2019-04-27T08:24:44.266Z,23.40
2019-04-27T08:27:29.429Z,24.00
2019-04-27T08:30:01.582Z,23.40
2019-04-27T08:32:36.531Z,23.40
2019-04-27T08:35:05.752Z,23.50
2019-04-27T08:37:33.316Z,23.30
2019-04-27T08:40:00.920Z,23.40
2019-04-27T08:42:29.342Z,23.40
2019-04-27T08:44:57.186Z,23.40
2019-04-27T08:47:24.771Z,23.40
2019-04-27T08:49:52.380Z,23.40
2019-04-27T08:52:19.959Z,23.40
2019-04-27T08:54:49.103Z,23.40
2019-04-27T08:57:18.667Z,23.40
2019-04-27T08:59:46.130Z,23.30
2019-04-27T09:02:13.738Z,23.40
2019-04-27T09:04:41.291Z,23.30
2019-04-27T09:07:26.774Z,23.40
2019-04-27T09:09:55.994Z,23.40
2019-04-27T09:12:25.225Z,23.40
2019-04-27T09:14:54.425Z,23.40
2019-04-27T09:17:23.640Z,23.40
2019-04-27T09:20:01.949Z,23.40
2019-04-27T09:22:29.592Z,23.40
2019-04-27T09:24:57.204Z,23.50
2019-04-27T09:27:24.801Z,23.50
2019-04-27T09:29:52.376Z,23.40
2019-04-27T09:32:19.996Z,23.40
2019-04-27T09:34:47.632Z,23.30
2019-04-27T09:37:15.979Z,23.60
2019-04-27T09:39:43.788Z,23.30
2019-04-27T09:42:11.392Z,23.40
2019-04-27T09:44:38.957Z,23.40
2019-04-27T09:47:06.562Z,23.40
2019-04-27T09:49:34.122Z,23.40
2019-04-27T09:52:01.749Z,23.20
2019-04-27T09:54:29.312Z,23.30
2019-04-27T09:56:56.987Z,23.30
2019-04-27T09:59:26.438Z,23.40
2019-04-27T10:01:55.587Z,23.40
2019-04-27T10:04:23.141Z,23.30
2019-04-27T10:06:50.742Z,23.10
2019-04-27T10:09:18.309Z,23.30
2019-04-27T10:11:45.876Z,24.00
2019-04-27T10:14:13.477Z,23.20
2019-04-27T10:16:41.048Z,23.30
2019-04-27T10:19:08.619Z,23.30
2019-04-27T10:21:36.554Z,23.10
2019-04-27T10:24:04.275Z,23.20
2019-04-27T10:26:31.937Z,23.10
2019-04-27T10:28:59.587Z,23.10
2019-04-27T10:31:27.222Z,23.10
2019-04-27T10:33:55.983Z,23.10
2019-04-27T10:36:38.780Z,23.00
2019-04-27T10:39:08.037Z,23.10
2019-04-27T10:41:36.949Z,23.10
2019-04-27T10:44:05.830Z,23.00
2019-04-27T10:46:34.365Z,23.10
2019-04-27T10:49:02.410Z,23.00
2019-04-27T10:51:29.995Z,23.00
2019-04-27T10:53:57.611Z,23.10
2019-04-27T10:56:25.492Z,23.00
2019-04-27T10:58:55.832Z,23.00
2019-04-27T11:01:23.546Z,23.60
2019-04-27T11:03:52.736Z,23.10
2019-04-27T11:06:36.902Z,23.10
2019-04-27T11:09:06.199Z,23.10
2019-04-27T11:11:36.229Z,23.10
2019-04-27T11:14:03.740Z,23.10
2019-04-27T11:16:31.352Z,23.30
2019-04-27T11:18:58.964Z,23.20
2019-04-27T11:21:26.557Z,22.80
2019-04-27T11:23:55.900Z,23.40
2019-04-27T11:26:23.400Z,23.40
2019-04-27T11:28:51.017Z,23.40
2019-04-27T11:31:18.633Z,23.50
2019-04-27T11:33:46.492Z,23.50
2019-04-27T11:36:18.690Z,23.60
2019-04-27T11:38:47.993Z,23.60
2019-04-27T11:41:16.223Z,23.60
2019-04-27T11:43:44.119Z,23.10
2019-04-27T11:46:11.893Z,23.60
2019-04-27T11:48:39.505Z,23.70
2019-04-27T11:51:07.112Z,23.70
2019-04-27T11:53:35.974Z,23.70
2019-04-27T11:56:03.664Z,23.70
2019-04-27T11:58:31.260Z,23.70
2019-04-27T12:00:58.846Z,23.70
2019-04-27T12:03:26.432Z,23.70
2019-04-27T12:05:53.989Z,23.60
2019-04-27T12:08:21.599Z,23.60
2019-04-27T12:10:49.176Z,24.10
2019-04-27T12:13:16.760Z,23.60
2019-04-27T12:15:44.326Z,23.60
2019-04-27T12:18:11.919Z,23.70
2019-04-27T12:20:39.494Z,23.70
2019-04-27T12:23:07.113Z,23.80
2019-04-27T12:25:37.072Z,23.80
2019-04-27T12:28:11.450Z,23.70
2019-04-27T12:30:43.648Z,23.70
2019-04-27T12:33:11.224Z,23.70
2019-04-27T12:35:38.836Z,23.70
2019-04-27T12:38:06.414Z,23.70
2019-04-27T12:40:33.960Z,23.70
2019-04-27T12:43:01.552Z,23.80
2019-04-27T12:45:29.173Z,23.80
2019-04-27T12:47:56.781Z,23.80
2019-04-27T12:50:26.109Z,23.70
2019-04-27T12:52:55.529Z,23.70
2019-04-27T12:55:25.746Z,23.70
2019-04-27T12:57:55.108Z,23.60
2019-04-27T13:00:24.306Z,23.60
2019-04-27T13:02:51.914Z,23.60
2019-04-27T13:05:19.550Z,23.60
2019-04-27T13:07:47.155Z,23.50
2019-04-27T13:10:15.902Z,23.50
2019-04-27T13:12:43.684Z,23.50
2019-04-27T13:15:11.302Z,23.50
2019-04-27T13:17:38.901Z,23.50
2019-04-27T13:20:06.514Z,23.50
2019-04-27T13:22:36.986Z,23.40
2019-04-27T13:25:05.761Z,23.60
2019-04-27T13:27:33.688Z,23.40
2019-04-27T13:30:01.270Z,23.40
2019-04-27T13:32:28.841Z,23.40
2019-04-27T13:34:56.775Z,23.40
2019-04-27T13:37:32.242Z,23.30
2019-04-27T13:40:07.116Z,23.30
2019-04-27T13:42:30.768Z,23.20
2019-04-27T13:45:00.026Z,23.20
2019-04-27T13:47:46.417Z,23.30
2019-04-27T13:50:15.756Z,23.20
2019-04-27T13:52:43.338Z,23.20
2019-04-27T13:55:10.930Z,23.20
2019-04-27T13:57:49.719Z,23.10
2019-04-27T14:00:07.832Z,23.20
2019-04-27T14:02:35.421Z,23.30
2019-04-27T14:05:03.610Z,23.30
2019-04-27T14:07:31.213Z,23.20
2019-04-27T14:10:00.045Z,23.10
2019-04-27T14:12:28.484Z,23.20
2019-04-27T14:14:56.229Z,23.20
2019-04-27T14:17:23.845Z,23.10
2019-04-27T14:19:51.474Z,23.10
2019-04-27T14:22:19.048Z,23.20
2019-04-27T14:24:48.567Z,23.20
2019-04-27T14:27:17.012Z,23.20
2019-04-27T14:29:44.610Z,23.20
2019-04-27T14:32:12.181Z,23.30
2019-04-27T14:34:39.788Z,23.20
2019-04-27T14:37:08.679Z,23.40
2019-04-27T14:39:36.399Z,23.30
2019-04-27T14:42:04.005Z,23.20
2019-04-27T14:44:31.573Z,23.30
2019-04-27T14:46:59.137Z,23.30
2019-04-27T14:49:26.722Z,23.40
2019-04-27T14:51:54.326Z,23.30
2019-04-27T14:54:21.896Z,23.40
2019-04-27T14:56:49.490Z,23.40
2019-04-27T14:59:18.743Z,23.40
2019-04-27T15:01:46.558Z,23.30
2019-04-27T15:04:14.175Z,23.50
2019-04-27T15:06:41.764Z,23.50
2019-04-27T15:09:09.417Z,23.20
2019-04-27T15:11:37.069Z,23.50
2019-04-27T15:14:04.696Z,23.50
2019-04-27T15:16:32.384Z,23.60
2019-04-27T15:19:07.332Z,23.50
2019-04-27T15:21:40.399Z,23.50
2019-04-27T15:24:09.239Z,23.70
2019-04-27T15:26:33.563Z,23.70
2019-04-27T15:29:02.781Z,23.70
2019-04-27T15:31:34.933Z,23.70
2019-04-27T15:34:06.847Z,23.70
2019-04-27T15:36:42.129Z,23.80
2019-04-27T15:39:30.487Z,23.80
2019-04-27T15:42:07.987Z,23.90
2019-04-27T15:44:31.018Z,23.90
2019-04-27T15:46:58.603Z,23.90
2019-04-27T15:49:26.207Z,23.90
2019-04-27T15:51:54.901Z,24.00
2019-04-27T15:54:28.699Z,24.00
2019-04-27T15:56:52.526Z,24.00
2019-04-27T15:59:21.720Z,24.10
2019-04-27T16:01:49.311Z,24.10
2019-04-27T16:04:16.871Z,24.40
2019-04-27T16:06:47.647Z,24.10
2019-04-27T16:09:24.231Z,24.20
2019-04-27T16:11:50.263Z,24.10
2019-04-27T16:14:18.785Z,24.20
2019-04-27T16:16:46.069Z,24.20
2019-04-27T16:19:13.629Z,24.20
2019-04-27T16:21:46.993Z,24.30
2019-04-27T16:24:12.596Z,24.30
2019-04-27T16:26:41.880Z,24.30
2019-04-27T16:29:09.186Z,24.30
2019-04-27T16:31:38.468Z,24.30
2019-04-27T16:34:06.175Z,24.30
2019-04-27T16:36:37.840Z,24.30
2019-04-27T16:39:08.160Z,24.30
2019-04-27T16:41:37.333Z,24.30
2019-04-27T16:44:06.843Z,24.40
2019-04-27T16:46:39.417Z,24.50
2019-04-27T16:49:07.268Z,24.60
2019-04-27T16:51:36.949Z,24.50
2019-04-27T16:54:03.462Z,24.40
2019-04-27T16:56:31.039Z,24.40
2019-04-27T16:59:11.596Z,24.30
2019-04-27T17:01:30.363Z,24.20
2019-04-27T17:03:59.289Z,24.20
2019-04-27T17:06:29.355Z,24.10
2019-04-27T17:08:57.316Z,24.00
2019-04-27T17:11:25.938Z,24.00
2019-04-27T17:13:58.978Z,23.90
2019-04-27T17:16:40.525Z,24.00
2019-04-27T17:19:13.015Z,23.90
2019-04-27T17:21:41.308Z,23.80
2019-04-27T17:24:09.171Z,23.80
2019-04-27T17:26:42.357Z,23.80
2019-04-27T17:29:16.638Z,23.70
2019-04-27T17:31:44.528Z,23.70
2019-04-27T17:34:12.122Z,23.70
2019-04-27T17:36:40.264Z,23.60
2019-04-27T17:39:11.919Z,23.60
2019-04-27T17:41:42.166Z,24.10
2019-04-27T17:44:12.656Z,23.70
2019-04-27T17:46:38.534Z,23.50
2019-04-27T17:49:06.225Z,23.50
2019-04-27T17:51:35.140Z,23.60
2019-04-27T17:54:07.341Z,23.50
2019-04-27T17:56:35.964Z,23.50
2019-04-27T17:59:01.703Z,23.50
2019-04-27T18:01:31.837Z,23.60
2019-04-27T18:04:02.776Z,23.50
2019-04-27T18:06:29.617Z,23.50
2019-04-27T18:09:00.827Z,23.40
2019-04-27T18:11:28.587Z,23.40
2019-04-27T18:13:59.927Z,23.50
2019-04-27T18:16:30.515Z,23.40
2019-04-27T18:19:11.491Z,23.30
2019-04-27T18:21:38.844Z,23.30
2019-04-27T18:24:10.787Z,23.30
2019-04-27T18:26:48.741Z,23.40
2019-04-27T18:29:09.438Z,23.40
2019-04-27T18:31:38.308Z,23.40
2019-04-27T18:34:08.591Z,23.40
2019-04-27T18:36:37.889Z,23.30
2019-04-27T18:39:10.401Z,23.40
2019-04-27T18:41:35.726Z,23.40
2019-04-27T18:44:03.299Z,23.40
2019-04-27T18:46:30.883Z,23.40
2019-04-27T18:49:00.128Z,23.50
2019-04-27T18:51:35.142Z,23.50
2019-04-27T18:54:03.714Z,23.30
2019-04-27T18:56:33.288Z,23.40
2019-04-27T18:59:00.847Z,23.50
2019-04-27T19:01:28.933Z,23.30
2019-04-27T19:03:58.191Z,23.40
2019-04-27T19:06:25.833Z,23.40
2019-04-27T19:08:53.414Z,23.50
2019-04-27T19:11:20.990Z,23.50
2019-04-27T19:13:48.904Z,23.40
2019-04-27T19:16:18.606Z,23.50
2019-04-27T19:18:47.695Z,23.50
2019-04-27T19:21:15.245Z,23.40
2019-04-27T19:23:42.843Z,23.50
2019-04-27T19:26:15.024Z,23.50
2019-04-27T19:28:44.335Z,23.90
2019-04-27T19:31:25.391Z,23.40
2019-04-27T19:33:53.051Z,23.50
2019-04-27T19:36:20.640Z,23.40
2019-04-27T19:38:49.614Z,23.50
2019-04-27T19:41:18.418Z,22.90
2019-04-27T19:43:46.178Z,23.50
2019-04-27T19:46:13.751Z,23.40
2019-04-27T19:48:41.341Z,23.40
2019-04-27T19:51:09.117Z,23.50
2019-04-27T19:53:36.796Z,23.40
2019-04-27T19:56:04.377Z,23.40
2019-04-27T19:58:33.618Z,23.40
2019-04-27T20:01:11.958Z,23.40
2019-04-27T20:03:38.611Z,23.40
2019-04-27T20:06:06.092Z,23.50
2019-04-27T20:08:35.332Z,23.40
2019-04-27T20:11:02.948Z,23.40
2019-04-27T20:13:30.553Z,23.50
2019-04-27T20:15:58.125Z,23.40
2019-04-27T20:18:25.753Z,23.60
2019-04-27T20:20:53.336Z,23.50
2019-04-27T20:23:22.456Z,23.50
2019-04-27T20:25:50.215Z,23.40
2019-04-27T20:28:17.786Z,23.50
2019-04-27T20:30:45.507Z,23.30
2019-04-27T20:33:13.069Z,23.40
2019-04-27T20:35:40.760Z,23.40
2019-04-27T20:38:10.908Z,23.40
2019-04-27T20:40:39.416Z,23.40
2019-04-27T20:43:07.026Z,23.50
2019-04-27T20:45:34.636Z,23.40
2019-04-27T20:48:02.201Z,23.40
2019-04-27T20:50:30.906Z,23.40
2019-04-27T20:52:59.803Z,23.40
2019-04-27T20:55:27.378Z,23.30
2019-04-27T20:58:01.689Z,23.00
2019-04-27T21:00:24.283Z,23.30
2019-04-27T21:02:53.510Z,23.40
2019-04-27T21:05:25.700Z,23.30
2019-04-27T21:08:07.255Z,23.30
2019-04-27T21:10:34.917Z,23.30
2019-04-27T21:13:02.515Z,23.20
2019-04-27T21:15:31.519Z,22.80
2019-04-27T21:18:01.135Z,23.30
2019-04-27T21:20:28.560Z,23.30
2019-04-27T21:22:56.121Z,23.40
2019-04-27T21:25:23.713Z,23.30
2019-04-27T21:27:51.434Z,23.30
2019-04-27T21:30:19.068Z,23.20
2019-04-27T21:32:46.672Z,23.20
2019-04-27T21:35:14.227Z,23.20
2019-04-27T21:37:41.841Z,23.20
2019-04-27T21:40:21.123Z,23.20
2019-04-27T21:42:48.683Z,23.20
2019-04-27T21:45:16.639Z,23.20
2019-04-27T21:47:44.293Z,23.20
2019-04-27T21:50:12.113Z,23.30
2019-04-27T21:52:47.253Z,23.20
2019-04-27T21:55:16.490Z,23.30
2019-04-27T21:57:44.084Z,23.30
2019-04-27T22:00:14.976Z,23.20
2019-04-27T22:02:42.687Z,23.10
2019-04-27T22:05:12.214Z,23.20
2019-04-27T22:07:39.708Z,23.10
2019-04-27T22:10:07.254Z,23.10
2019-04-27T22:12:34.911Z,23.20
2019-04-27T22:15:02.472Z,23.70
2019-04-27T22:17:30.090Z,23.00
2019-04-27T22:19:58.436Z,23.10
2019-04-27T22:22:33.878Z,23.10
2019-04-27T22:25:08.830Z,23.00
2019-04-27T22:27:36.410Z,23.00
2019-04-27T22:30:05.074Z,23.00
2019-04-27T22:32:32.845Z,23.00
2019-04-27T22:35:00.537Z,23.00
2019-04-27T22:37:28.139Z,22.90
2019-04-27T22:40:09.347Z,22.90
2019-04-27T22:42:37.311Z,23.00
2019-04-27T22:45:07.431Z,22.90
2019-04-27T22:47:35.041Z,22.90
2019-04-27T22:50:02.646Z,22.90
2019-04-27T22:52:30.741Z,22.90
2019-04-27T22:54:58.382Z,22.80
2019-04-27T22:57:28.629Z,22.90
2019-04-27T23:00:03.919Z,23.00
2019-04-27T23:02:40.423Z,23.00
2019-04-27T23:05:08.613Z,22.90
2019-04-27T23:07:36.210Z,23.00
2019-04-27T23:10:05.459Z,23.00
2019-04-27T23:12:33.071Z,22.90
2019-04-27T23:15:00.657Z,23.10
2019-04-27T23:17:41.804Z,23.00
2019-04-27T23:20:09.417Z,23.00
2019-04-27T23:22:37.032Z,23.00
2019-04-27T23:25:06.248Z,22.90
2019-04-27T23:27:33.884Z,22.80
2019-04-27T23:30:01.640Z,22.80
2019-04-27T23:32:51.325Z,22.70
2019-04-27T23:35:18.462Z,22.80
2019-04-27T23:37:46.054Z,22.90
2019-04-27T23:40:13.654Z,22.80
2019-04-27T23:42:41.747Z,22.90
2019-04-27T23:45:09.476Z,22.90
2019-04-27T23:47:37.694Z,22.90
2019-04-27T23:50:05.851Z,22.80
2019-04-27T23:52:37.771Z,22.70
2019-04-27T23:55:05.354Z,22.60
2019-04-27T23:57:32.981Z,22.80
